Accueil
METAR-TAF:

METAR-TAF

Aéroports :

Suceava, Roumanie

latitude: 47-39N, longitude: 026-15E, altitude: 351 m

Observation

Le bulletin a été fait il y a 32 minutes, à 23:00 UTC
Vent 9 kt de sud-ouest
Température 19°C
Humidité 78%
Pression 1011 hPa
Visibilité 10 km ou plus
pas de nuages en-dessous de 1500 mètres et pas de cumulonimbus.

METAR: LRSV 212300Z 23009KT CAVOK 19/15 Q1011

Heure: 02:32 (23:32 UTC)

Prévision

Le bulletin a été fait il y a 3 heures et 32 minutes, à 20:00 UTC
Prévision valable du 21 à 21 UTC au 22 à 06 UTC
Vent 7 kt de ouest/sud-ouest
Visibilité 10 km ou plus
pas de nuages en-dessous de 1500 mètres et pas de cumulonimbus.
Temporairement
du 22 à 00 UTC au 22 à 03 UTC
Visibilité: 5000 m
brume

TAF: LRSV 212000Z 2121/2206 24007KT CAVOK TEMPO 2200/2203 5000 BR

Observations et prévisions météorologiques de plus de 4000 aéroports (messages METAR et TAF).

Les stations disponibles sont représentées par des disques jaunes et rouges sur la carte.

Passer la souris dessus pour voir le nom de la station.

Cliquer dessus pour voir les observations et prévisions météorologiques.

Pour changer de carte: cliquez sur les boutons verts avec une croix noire pour zoomer, sur le bouton vert avec un tiret pour effectuer un zoom arrière, ou sur les flèches vertes pour les cartes adjacentes.


METAR-TAF: